Milwaukee, Wisconsin
Traffic Map
Current Weather Conditions
Milwaukee, Wisconsin
Overcast
Overcast
44°
Feels Like: 40°
Wind Chill: 40° Ceiling: 7000
Heat Index: 44° Visibility: 10mi
Dew Point: 40° Wind: 8mph
Humidity: 85% Direction: 20° (NNE)
Pressure: 30.07in Gusts: 0mph
Raw Report DataKMKE 020752Z 02007KT 10SM OVC070 07/04 A3007 RMK AO2 SLP187 T00670044
Traffic Incident Summary
Active as of:
Severity:
Category:
InformationThere was an issue retrieving the traffic information for this location. Please try a different location or try again shortly.
Advertisements
Track Severe Weather on mobile